Time;durP1;ratioP1;P1;durP2;ratioP2;P2;SDS_P1;SDS_P2;PMS_P1;PMS_P2;Temp;Humidity;BMP_temperature;BMP_pressure;BME280_temperature;BME280_humidity;BME280_pressure;Samples;Min_cycle;Max_cycle;Signal;HPM_P1;HPM_P2
2024/02/29 00:01:09;;;;;;;35.92;19.05;;;;;;;2.81;76.80;99129.13;5008617;28;20120;-83
2024/02/29 00:03:34;;;;;;;41.08;22.00;;;;;;;2.65;77.02;99110.97;5004627;28;20029;-83
2024/02/29 00:06:00;;;;;;;35.72;18.58;;;;;;;2.84;76.95;99134.00;5023928;28;20064;-82
2024/02/29 00:08:27;;;;;;;39.22;18.27;;;;;;;2.77;76.21;99130.53;5033231;28;20034;-81
2024/02/29 00:10:52;;;;;;;33.10;16.98;;;;;;;2.64;76.74;99130.44;5037180;28;20116;-83
2024/02/29 00:13:18;;;;;;;30.75;16.50;;;;;;;2.50;77.76;99128.69;5040004;28;20125;-83
2024/02/29 00:15:43;;;;;;;35.03;17.70;;;;;;;2.59;76.96;99118.81;5005682;28;20025;-83
2024/02/29 00:18:08;;;;;;;35.53;16.83;;;;;;;2.44;77.32;99084.66;5017853;28;20125;-82
2024/02/29 00:20:35;;;;;;;28.35;16.08;;;;;;;2.70;76.81;99113.84;5034205;28;20381;-82
2024/02/29 00:23:00;;;;;;;34.67;18.30;;;;;;;2.53;77.14;99087.97;5021278;28;20037;-82
2024/02/29 00:25:26;;;;;;;33.50;16.42;;;;;;;2.60;76.25;99088.84;5030918;28;20040;-83
2024/02/29 00:27:51;;;;;;;37.40;16.50;;;;;;;2.66;76.20;99114.41;5036203;28;20033;-82
2024/02/29 00:30:17;;;;;;;33.05;16.98;;;;;;;2.60;76.68;99105.44;5020868;28;20116;-82
2024/02/29 00:32:43;;;;;;;38.83;17.63;;;;;;;2.31;77.10;99094.28;5004349;28;20544;-82
2024/02/29 00:35:09;;;;;;;31.55;15.85;;;;;;;2.47;77.03;99113.25;5021117;28;20044;-82
2024/02/29 00:37:34;;;;;;;27.13;15.25;;;;;;;2.12;77.34;99072.84;5033807;28;20141;-82
2024/02/29 00:39:59;;;;;;;34.78;16.13;;;;;;;2.40;77.27;99095.78;5016443;28;20156;-82
2024/02/29 00:42:25;;;;;;;28.70;15.68;;;;;;;2.39;77.12;99092.31;5036488;28;20384;-83
2024/02/29 00:44:50;;;;;;;35.05;17.27;;;;;;;2.40;77.05;99091.31;5016981;28;20048;-81
2024/02/29 00:47:16;;;;;;;29.90;15.43;;;;;;;2.52;76.80;99107.41;5029385;28;20025;-82
2024/02/29 00:49:41;;;;;;;34.00;16.85;;;;;;;2.63;76.66;99098.97;5020518;28;20056;-83
2024/02/29 00:52:07;;;;;;;30.67;16.65;;;;;;;2.36;76.55;99061.06;5017154;28;20034;-83
2024/02/29 00:54:32;;;;;;;26.42;15.07;;;;;;;2.62;76.52;99084.19;5017399;28;20492;-81
2024/02/29 00:56:57;;;;;;;32.38;16.10;;;;;;;2.62;76.45;99076.28;5016690;28;20040;-83
2024/02/29 00:59:23;;;;;;;25.73;14.18;;;;;;;2.50;75.76;99049.66;5002715;28;20163;-83
2024/02/29 01:01:48;;;;;;;30.33;16.05;;;;;;;2.65;76.12;99089.88;5021105;28;20040;-83
2024/02/29 01:04:14;;;;;;;23.17;14.70;;;;;;;2.63;76.21;99086.63;5017445;28;20440;-83
2024/02/29 01:06:42;;;;;;;28.33;15.23;;;;;;;2.32;76.25;99054.56;5020582;28;20485;-82
2024/02/29 01:09:08;;;;;;;26.50;15.05;;;;;;;2.61;76.54;99082.56;5038866;28;20121;-83
2024/02/29 01:11:34;;;;;;;31.17;16.65;;;;;;;2.31;76.49;99044.22;5047110;28;20030;-83
2024/02/29 01:14:02;;;;;;;27.10;14.85;;;;;;;2.47;76.61;99075.56;5021015;28;20040;-83
2024/02/29 01:16:27;;;;;;;24.65;14.25;;;;;;;2.37;76.71;99075.88;5019763;28;20041;-82
2024/02/29 01:18:53;;;;;;;42.10;15.75;;;;;;;2.46;76.95;99074.75;5019872;28;20040;-83
2024/02/29 01:21:18;;;;;;;27.67;14.55;;;;;;;2.40;76.69;99062.34;4998006;28;20032;-83
2024/02/29 01:23:43;;;;;;;32.47;15.52;;;;;;;2.47;76.51;99065.81;5037060;28;20112;-83
2024/02/29 01:26:10;;;;;;;28.27;14.85;;;;;;;2.44;76.40;99057.50;5034531;28;20131;-82
2024/02/29 01:28:36;;;;;;;27.83;14.90;;;;;;;2.44;76.18;99044.34;5001542;28;20152;-83
2024/02/29 01:31:01;;;;;;;27.13;14.43;;;;;;;2.44;76.18;99042.53;5018941;28;20033;-82
2024/02/29 01:33:26;;;;;;;32.15;15.23;;;;;;;2.44;76.74;99053.06;5019167;28;20489;-82
2024/02/29 01:35:52;;;;;;;31.88;15.75;;;;;;;2.35;76.63;99030.50;5037501;28;20026;-82
2024/02/29 01:38:17;;;;;;;32.90;15.25;;;;;;;2.23;76.88;99022.28;5018215;28;20105;-83
2024/02/29 01:40:46;;;;;;;27.50;15.27;;;;;;;2.42;76.22;99039.28;5003476;28;20030;-83
2024/02/29 01:43:11;;;;;;;25.65;14.75;;;;;;;2.49;76.37;99045.38;5032647;28;20025;-83
2024/02/29 01:45:36;;;;;;;29.05;13.93;;;;;;;2.34;76.92;99025.44;5032424;28;20041;-83
2024/02/29 01:48:02;;;;;;;28.45;15.15;;;;;;;2.54;76.30;99037.72;5034753;28;20118;-83
2024/02/29 01:50:28;;;;;;;28.25;15.60;;;;;;;2.35;76.08;99017.31;5035852;28;20033;-83
2024/02/29 01:52:54;;;;;;;29.27;14.35;;;;;;;2.40;76.14;99025.47;5034055;28;20635;-83
2024/02/29 01:55:19;;;;;;;28.10;16.30;;;;;;;2.41;76.71;99035.00;5020113;28;20028;-83
2024/02/29 01:57:45;;;;;;;33.42;16.27;;;;;;;2.29;77.00;99016.25;5036170;28;20029;-82
2024/02/29 02:00:11;;;;;;;29.08;16.58;;;;;;;2.09;77.05;98967.94;5036252;28;20064;-82
2024/02/29 02:02:37;;;;;;;28.95;16.35;;;;;;;2.24;76.52;99000.25;5037306;28;20056;-83
2024/02/29 02:05:07;;;;;;;30.00;16.20;;;;;;;2.39;76.42;99012.47;5039233;28;20394;-83
2024/02/29 02:07:35;;;;;;;35.47;15.52;;;;;;;2.39;75.97;99030.91;5034375;28;20101;-83
2024/02/29 02:10:01;;;;;;;27.67;15.70;;;;;;;1.79;76.29;98960.41;5033386;28;20075;-83
2024/02/29 02:12:26;;;;;;;27.70;14.40;;;;;;;1.96;76.69;98977.53;5046392;28;20076;-82
2024/02/29 02:14:52;;;;;;;29.13;14.35;;;;;;;2.22;76.76;99011.97;4999792;28;20125;-83
2024/02/29 02:17:17;;;;;;;29.35;13.50;;;;;;;2.07;76.64;98996.28;5033402;28;20521;-83
2024/02/29 02:19:44;;;;;;;23.58;13.13;;;;;;;2.15;76.95;99021.63;5032934;28;20037;-83
2024/02/29 02:22:10;;;;;;;22.65;13.30;;;;;;;2.02;77.32;99021.50;5054374;28;20028;-82
2024/02/29 02:24:35;;;;;;;27.33;14.18;;;;;;;1.84;77.33;98986.94;5032422;28;20413;-82
2024/02/29 02:27:01;;;;;;;23.38;12.38;;;;;;;1.95;77.18;98996.94;5033155;28;20025;-82
2024/02/29 02:29:26;;;;;;;24.35;13.63;;;;;;;2.03;77.30;99012.63;5019525;28;20033;-82
2024/02/29 02:31:53;;;;;;;23.05;13.07;;;;;;;1.81;77.30;98972.38;5034179;28;20125;-83
2024/02/29 02:34:20;;;;;;;19.27;12.02;;;;;;;2.05;77.36;99008.78;4998246;28;20097;-82
2024/02/29 02:36:45;;;;;;;27.98;13.00;;;;;;;2.04;77.09;98993.19;5001480;28;20545;-83
2024/02/29 02:39:10;;;;;;;19.42;12.73;;;;;;;2.18;77.27;99005.47;5032174;28;20062;-82
2024/02/29 02:41:36;;;;;;;21.35;12.38;;;;;;;2.30;76.54;98998.66;5012944;28;20089;-82
2024/02/29 02:44:01;;;;;;;23.20;12.93;;;;;;;2.28;76.33;98990.94;5035173;28;20034;-83
2024/02/29 02:46:26;;;;;;;19.42;12.07;;;;;;;1.90;77.04;98949.34;4996322;28;20034;-82
2024/02/29 02:48:52;;;;;;;23.90;12.80;;;;;;;1.90;76.81;98933.56;5034020;28;20484;-81
2024/02/29 02:51:17;;;;;;;21.75;12.88;;;;;;;1.90;76.61;98910.66;4998083;28;20507;-82
2024/02/29 02:53:43;;;;;;;23.98;12.93;;;;;;;2.03;75.97;98931.03;5032246;28;20116;-84
2024/02/29 02:56:08;;;;;;;22.40;12.93;;;;;;;2.23;76.55;98958.28;5030362;28;20029;-83
2024/02/29 02:58:35;;;;;;;22.25;11.35;;;;;;;2.12;76.04;98956.19;5015381;28;20041;-82
2024/02/29 03:01:00;;;;;;;23.92;12.32;;;;;;;2.08;76.86;98962.84;5015653;28;20587;-83
2024/02/29 03:03:26;;;;;;;21.00;11.38;;;;;;;1.97;77.43;98955.47;5035105;28;20026;-83
2024/02/29 03:05:51;;;;;;;22.15;12.13;;;;;;;1.74;77.10;98932.03;5019758;28;20042;-82
2024/02/29 03:08:16;;;;;;;21.30;11.75;;;;;;;1.87;77.10;98944.47;5018219;28;20112;-82
2024/02/29 03:10:42;;;;;;;18.25;11.50;;;;;;;1.96;76.88;98961.75;4996074;28;20037;-83
2024/02/29 03:13:07;;;;;;;24.70;12.35;;;;;;;2.02;76.81;98953.91;5033106;28;20042;-82
2024/02/29 03:15:33;;;;;;;20.70;11.93;;;;;;;1.79;77.01;98948.03;5000927;28;20179;-83
2024/02/29 03:17:58;;;;;;;20.35;12.07;;;;;;;1.95;77.54;98953.03;5034259;28;20030;-83
2024/02/29 03:20:24;;;;;;;24.60;12.07;;;;;;;1.82;78.14;98952.94;5012663;28;20113;-83
2024/02/29 03:22:49;;;;;;;24.25;13.05;;;;;;;1.56;77.69;98930.84;5030744;28;20033;-83
2024/02/29 03:25:16;;;;;;;22.30;12.63;;;;;;;1.95;76.93;98910.91;5017881;28;20365;-83
2024/02/29 03:27:41;;;;;;;20.80;11.32;;;;;;;2.12;76.38;98921.97;5034564;28;20102;-83
2024/02/29 03:30:07;;;;;;;24.48;13.32;;;;;;;2.20;76.52;98930.53;5032586;28;20320;-83
2024/02/29 03:32:33;;;;;;;19.33;10.93;;;;;;;2.24;75.82;98938.88;5018552;28;20022;-83
2024/02/29 03:35:01;;;;;;;21.05;11.73;;;;;;;2.08;75.90;98915.44;5024292;28;20128;-83
2024/02/29 03:37:26;;;;;;;23.63;12.32;;;;;;;2.22;76.07;98933.78;5038440;28;20093;-83
2024/02/29 03:39:52;;;;;;;19.80;12.05;;;;;;;1.52;76.11;98830.47;5034731;28;20049;-83
2024/02/29 03:42:17;;;;;;;24.13;12.05;;;;;;;2.01;76.37;98907.50;5000267;28;20056;-82
2024/02/29 03:44:45;;;;;;;21.25;12.05;;;;;;;1.98;76.00;98915.81;5038189;28;20045;-83
2024/02/29 03:47:11;;;;;;;21.60;11.98;;;;;;;1.77;76.28;98894.00;5024643;28;20033;-83
2024/02/29 03:49:36;;;;;;;18.08;11.43;;;;;;;2.03;76.21;98923.13;5037446;28;20112;-82
2024/02/29 03:52:02;;;;;;;22.05;13.25;;;;;;;2.11;76.47;98922.97;5039667;28;20382;-81
2024/02/29 03:54:28;;;;;;;26.33;13.70;;;;;;;2.09;75.93;98923.19;5037963;28;20061;-83
2024/02/29 03:56:53;;;;;;;22.65;12.88;;;;;;;1.88;76.93;98911.91;5037842;28;20029;-82
2024/02/29 03:59:19;;;;;;;19.90;12.20;;;;;;;1.75;76.80;98872.34;5019508;28;20075;-83
2024/02/29 04:01:51;;;;;;;20.58;12.60;;;;;;;1.75;76.78;98875.75;5020679;28;20062;-83
2024/02/29 04:04:17;;;;;;;20.17;11.40;;;;;;;1.83;76.44;98872.19;5039295;28;20052;-82
2024/02/29 04:06:43;;;;;;;27.63;12.63;;;;;;;1.96;77.08;98902.03;5037582;28;20029;-83
2024/02/29 04:09:09;;;;;;;22.75;12.60;;;;;;;1.92;76.55;98897.34;5036425;28;20052;-83
2024/02/29 04:11:36;;;;;;;18.02;11.82;;;;;;;1.63;76.58;98852.81;5017759;28;20054;-82
2024/02/29 04:14:03;;;;;;;24.30;11.93;;;;;;;1.70;76.94;98862.38;5038278;28;20025;-83
2024/02/29 04:16:29;;;;;;;25.02;12.25;;;;;;;1.78;77.10;98856.97;5019468;28;20029;-83
2024/02/29 04:18:54;;;;;;;17.23;10.32;;;;;;;1.98;76.84;98892.13;5033955;28;20375;-82
2024/02/29 04:21:20;;;;;;;18.70;11.27;;;;;;;1.90;76.64;98881.72;5023681;28;20026;-83
2024/02/29 04:23:45;;;;;;;19.83;12.07;;;;;;;1.64;76.37;98844.72;5016920;28;20452;-83
2024/02/29 04:26:11;;;;;;;20.70;12.20;;;;;;;1.95;76.79;98891.69;5012119;28;20113;-81
2024/02/29 04:28:36;;;;;;;18.83;12.13;;;;;;;2.02;76.15;98890.72;5036420;28;20125;-83
2024/02/29 04:31:04;;;;;;;23.98;12.38;;;;;;;1.76;76.44;98881.84;5021549;28;20025;-83
2024/02/29 04:33:29;;;;;;;20.92;12.68;;;;;;;1.95;76.67;98858.28;5037535;28;20381;-83
2024/02/29 04:35:55;;;;;;;18.63;11.75;;;;;;;2.05;76.40;98881.63;5017883;28;20036;-83
2024/02/29 04:38:20;;;;;;;22.02;12.55;;;;;;;2.00;76.25;98874.31;5005883;28;20029;-82
2024/02/29 04:40:46;;;;;;;24.50;12.75;;;;;;;2.02;76.30;98876.75;5036542;28;20037;-83
2024/02/29 04:43:11;;;;;;;22.02;12.50;;;;;;;1.90;76.56;98865.94;5023295;28;20107;-83
2024/02/29 04:45:37;;;;;;;19.67;11.68;;;;;;;1.65;76.37;98829.75;5020128;28;20033;-82
2024/02/29 04:48:02;;;;;;;22.55;11.70;;;;;;;1.75;76.92;98827.59;5019236;28;20038;-81
2024/02/29 04:50:28;;;;;;;22.05;11.88;;;;;;;1.82;76.79;98854.75;5032036;28;20045;-83
2024/02/29 04:52:53;;;;;;;19.75;11.57;;;;;;;1.76;76.61;98847.63;5046172;28;20041;-83
2024/02/29 04:55:19;;;;;;;18.10;11.30;;;;;;;1.70;77.31;98843.16;5017592;28;20045;-82
2024/02/29 04:57:44;;;;;;;23.10;12.10;;;;;;;1.62;77.09;98828.31;4995073;28;20509;-82
2024/02/29 05:00:10;;;;;;;16.65;11.20;;;;;;;1.98;76.67;98862.34;5033687;28;20091;-83
2024/02/29 05:02:36;;;;;;;21.05;12.70;;;;;;;1.93;76.49;98860.31;4999204;28;20503;-83
2024/02/29 05:05:01;;;;;;;18.67;11.27;;;;;;;1.62;77.26;98848.56;5022027;28;20048;-82
2024/02/29 05:07:27;;;;;;;18.02;11.48;;;;;;;1.86;76.44;98858.63;5038121;28;20030;-82
2024/02/29 05:09:52;;;;;;;22.42;12.15;;;;;;;1.69;76.89;98837.06;5019737;28;20033;-82
2024/02/29 05:12:19;;;;;;;20.83;12.07;;;;;;;1.73;76.74;98850.63;5004115;28;20041;-83
2024/02/29 05:14:45;;;;;;;23.02;12.32;;;;;;;1.81;76.67;98859.22;5025258;28;20060;-83
2024/02/29 05:17:10;;;;;;;23.98;13.90;;;;;;;1.65;77.01;98827.13;5040035;28;20030;-83
2024/02/29 05:19:37;;;;;;;24.67;11.93;;;;;;;1.63;77.30;98837.84;5036229;28;20040;-83
2024/02/29 05:22:03;;;;;;;18.83;11.73;;;;;;;1.71;77.49;98844.75;5016821;28;20044;-84
2024/02/29 05:24:29;;;;;;;28.67;12.32;;;;;;;1.56;77.17;98823.00;5014495;28;20034;-82
2024/02/29 05:26:55;;;;;;;26.17;13.98;;;;;;;1.64;77.27;98828.94;5017818;28;20034;-82
2024/02/29 05:29:20;;;;;;;22.60;11.73;;;;;;;1.27;76.64;98781.94;5019285;28;20030;-82
2024/02/29 05:31:52;;;;;;;18.63;11.65;;;;;;;1.58;77.39;98839.41;5005710;28;20087;-81
2024/02/29 05:34:20;;;;;;;20.40;11.77;;;;;;;1.75;76.82;98848.66;5042426;28;20033;-82
2024/02/29 05:36:45;;;;;;;19.83;12.68;;;;;;;1.59;76.52;98809.47;5032442;28;20507;-82
2024/02/29 05:39:12;;;;;;;20.13;12.38;;;;;;;1.83;76.79;98848.50;5043418;28;20033;-83
2024/02/29 05:41:37;;;;;;;22.17;11.02;;;;;;;1.26;76.33;98752.22;5027008;28;20030;-83
2024/02/29 05:44:03;;;;;;;24.13;12.30;;;;;;;1.87;76.42;98845.28;5015185;28;20031;-82
2024/02/29 05:46:28;;;;;;;21.25;12.45;;;;;;;1.66;76.37;98802.44;5025717;28;20444;-83
2024/02/29 05:48:53;;;;;;;21.63;11.20;;;;;;;1.79;76.18;98850.69;5031422;28;20057;-82
2024/02/29 05:51:19;;;;;;;24.15;13.05;;;;;;;1.55;76.90;98805.63;5065086;28;20024;-83
2024/02/29 05:53:46;;;;;;;23.85;12.77;;;;;;;1.79;76.03;98818.31;5008494;28;20068;-84
2024/02/29 05:56:13;;;;;;;22.42;12.80;;;;;;;1.74;76.13;98836.50;5042460;28;20040;-83
2024/02/29 05:58:39;;;;;;;21.08;12.57;;;;;;;1.58;77.03;98816.56;5032883;28;20040;-84
2024/02/29 06:01:06;;;;;;;24.20;12.75;;;;;;;1.58;76.60;98781.53;5050471;28;20025;-82
2024/02/29 06:03:31;;;;;;;25.27;13.13;;;;;;;1.61;76.48;98807.47;5042033;28;20025;-83
2024/02/29 06:05:59;;;;;;;20.30;11.85;;;;;;;1.55;76.29;98800.34;5041498;28;20040;-85
2024/02/29 06:08:25;;;;;;;23.65;13.13;;;;;;;1.64;76.55;98812.34;5036747;28;20009;-84
2024/02/29 06:10:53;;;;;;;25.67;14.88;;;;;;;1.48;76.73;98797.69;5042197;28;20080;-85
2024/02/29 06:13:18;;;;;;;20.48;11.63;;;;;;;0.90;76.22;98688.47;5041052;28;20036;-85
2024/02/29 06:15:43;;;;;;;18.20;12.10;;;;;;;1.73;75.86;98837.47;5027139;28;20388;-84
2024/02/29 06:18:10;;;;;;;19.40;11.75;;;;;;;1.20;76.46;98765.31;5041382;28;20037;-85
2024/02/29 06:20:35;;;;;;;21.80;12.38;;;;;;;1.15;76.87;98765.88;5019699;28;20038;-85
2024/02/29 06:23:01;;;;;;;21.55;12.57;;;;;;;1.14;76.22;98745.03;5022350;28;20026;-85
2024/02/29 06:25:26;;;;;;;23.15;13.18;;;;;;;1.69;76.51;98829.19;5023763;28;20109;-84
2024/02/29 06:27:51;;;;;;;29.85;15.60;;;;;;;1.69;76.70;98826.53;5023310;28;20022;-84
2024/02/29 06:30:17;;;;;;;20.73;12.77;;;;;;;1.21;76.46;98751.16;5023608;28;20053;-84
2024/02/29 06:32:44;;;;;;;24.40;12.50;;;;;;;1.74;76.18;98828.59;5022905;28;20099;-84
2024/02/29 06:35:10;;;;;;;20.88;12.07;;;;;;;1.12;76.48;98744.41;5040440;28;20025;-84
2024/02/29 06:37:39;;;;;;;21.63;12.02;;;;;;;1.22;76.69;98744.91;5041333;28;20040;-85
2024/02/29 06:40:10;;;;;;;20.55;12.63;;;;;;;1.70;76.32;98822.91;5040321;28;20036;-84
2024/02/29 06:42:36;;;;;;;22.02;12.70;;;;;;;1.46;76.43;98768.91;5046176;28;20037;-85
2024/02/29 06:45:03;;;;;;;21.30;12.40;;;;;;;1.43;76.61;98777.22;5025286;28;20496;-85
2024/02/29 06:47:29;;;;;;;22.10;12.18;;;;;;;0.76;77.09;98705.13;5012308;28;20025;-85
2024/02/29 06:49:54;;;;;;;22.50;12.98;;;;;;;1.09;79.25;98810.50;5034337;28;20116;-85
2024/02/29 06:52:19;;;;;;;20.92;12.10;;;;;;;0.61;78.80;98699.16;5023935;28;20029;-85
2024/02/29 06:54:45;;;;;;;22.50;12.30;;;;;;;1.10;79.11;98806.88;5002427;28;20029;-84
2024/02/29 06:57:11;;;;;;;20.15;11.82;;;;;;;1.16;79.31;98806.91;5020849;28;20412;-85
2024/02/29 06:59:37;;;;;;;22.70;12.57;;;;;;;1.16;80.27;98817.44;5044888;28;20040;-85
2024/02/29 07:02:02;;;;;;;20.67;11.48;;;;;;;1.23;80.03;98823.56;5045865;28;20462;-84
2024/02/29 07:04:27;;;;;;;23.58;12.85;;;;;;;1.18;79.99;98781.25;5038429;28;20029;-84
2024/02/29 07:06:53;;;;;;;24.27;13.13;;;;;;;1.14;81.24;98816.81;5018181;28;20117;-84
2024/02/29 07:09:18;;;;;;;21.90;14.35;;;;;;;1.42;80.04;98817.66;5043090;28;20065;-85
2024/02/29 07:11:45;;;;;;;25.15;13.75;;;;;;;1.11;80.55;98785.66;5041930;28;20037;-85
2024/02/29 07:14:11;;;;;;;31.60;15.20;;;;;;;1.37;80.77;98814.78;5024877;28;20033;-85
2024/02/29 07:16:38;;;;;;;23.02;13.00;;;;;;;1.08;81.92;98793.91;5037329;28;20029;-85
2024/02/29 07:19:03;;;;;;;26.17;14.00;;;;;;;1.07;82.27;98794.91;5013656;28;20396;-85
2024/02/29 07:21:31;;;;;;;24.02;13.65;;;;;;;0.99;82.74;98787.16;5026334;28;20029;-85
2024/02/29 07:23:57;;;;;;;31.35;16.92;;;;;;;0.99;82.54;98776.66;5020838;28;20994;-84
2024/02/29 07:26:22;;;;;;;24.23;14.52;;;;;;;1.12;82.17;98762.81;5020229;28;20029;-85
2024/02/29 07:28:47;;;;;;;24.17;13.52;;;;;;;1.56;81.12;98815.13;5046365;28;20029;-84
2024/02/29 07:31:13;;;;;;;26.35;13.73;;;;;;;1.39;81.01;98773.34;5040295;28;20052;-85
2024/02/29 07:33:38;;;;;;;22.52;14.05;;;;;;;1.44;81.07;98776.19;5020688;28;20037;-85
2024/02/29 07:36:04;;;;;;;27.50;14.35;;;;;;;1.31;83.05;98783.19;5042912;28;20096;-85
2024/02/29 07:38:29;;;;;;;26.92;15.10;;;;;;;1.21;83.15;98766.94;5028745;28;20071;-84
2024/02/29 07:40:55;;;;;;;23.02;14.45;;;;;;;1.64;81.72;98791.31;5019418;28;20112;-85
2024/02/29 07:43:20;;;;;;;28.35;14.82;;;;;;;1.81;80.69;98792.63;5036040;28;20097;-84
2024/02/29 07:45:45;;;;;;;30.42;15.50;;;;;;;1.50;81.59;98746.53;5021059;28;20041;-85
2024/02/29 07:48:11;;;;;;;28.70;15.77;;;;;;;1.94;81.88;98798.78;5021618;28;20091;-85
2024/02/29 07:50:36;;;;;;;31.60;16.40;;;;;;;1.84;82.86;98800.13;5017394;28;20133;-85
2024/02/29 07:53:02;;;;;;;28.58;16.33;;;;;;;1.82;82.49;98794.22;5018724;28;20029;-85
2024/02/29 07:55:27;;;;;;;30.63;18.25;;;;;;;1.98;81.25;98778.97;5009423;28;20054;-85
2024/02/29 07:57:52;;;;;;;30.77;16.70;;;;;;;2.07;81.72;98790.94;4995422;28;20029;-85
2024/02/29 08:00:18;;;;;;;35.40;17.73;;;;;;;1.73;83.76;98771.72;5036150;28;20029;-85
2024/02/29 08:02:43;;;;;;;31.52;17.58;;;;;;;1.95;83.06;98781.16;5013811;28;20451;-84
2024/02/29 08:05:09;;;;;;;30.90;18.48;;;;;;;2.15;82.66;98797.84;5033852;28;20028;-85
2024/02/29 08:07:35;;;;;;;36.60;18.80;;;;;;;2.32;81.27;98779.88;5032551;28;20493;-84
2024/02/29 08:10:01;;;;;;;37.28;17.92;;;;;;;2.15;83.40;98788.13;5030367;28;20038;-85
2024/02/29 08:12:26;;;;;;;36.83;20.58;;;;;;;2.13;84.14;98795.44;5018178;28;20025;-85
2024/02/29 08:14:52;;;;;;;42.45;21.23;;;;;;;2.12;84.25;98780.63;4998366;28;20488;-84
2024/02/29 08:17:17;;;;;;;35.00;20.23;;;;;;;2.17;83.34;98756.34;5035570;28;20111;-84
2024/02/29 08:19:43;;;;;;;39.88;19.05;;;;;;;2.41;83.33;98794.50;5016811;28;20097;-85
2024/02/29 08:22:08;;;;;;;33.70;18.70;;;;;;;2.60;81.80;98778.75;5015161;28;20088;-85
2024/02/29 08:24:34;;;;;;;35.53;17.98;;;;;;;2.76;81.07;98767.84;5038550;28;20511;-85
2024/02/29 08:26:59;;;;;;;35.55;20.52;;;;;;;2.72;81.56;98766.63;5020184;28;20045;-85
2024/02/29 08:29:25;;;;;;;34.10;18.35;;;;;;;2.71;82.00;98762.38;5039201;28;20029;-84
2024/02/29 08:31:50;;;;;;;35.67;19.17;;;;;;;2.70;80.88;98747.59;5051635;28;20029;-84
2024/02/29 08:34:16;;;;;;;42.08;22.13;;;;;;;2.61;82.62;98756.69;5020873;28;20040;-85
2024/02/29 08:36:41;;;;;;;37.63;20.42;;;;;;;2.77;82.65;98760.75;5037417;28;20021;-85
2024/02/29 08:39:06;;;;;;;38.35;20.95;;;;;;;2.79;82.52;98738.47;5033152;28;20120;-85
2024/02/29 08:41:32;;;;;;;38.50;19.73;;;;;;;2.83;81.40;98720.41;5024367;28;20481;-85
2024/02/29 08:43:57;;;;;;;36.78;20.48;;;;;;;2.54;82.93;98721.59;5024145;28;20034;-84
2024/02/29 08:46:23;;;;;;;36.80;20.00;;;;;;;2.12;84.14;98658.72;5020354;28;20026;-85
2024/02/29 08:48:48;;;;;;;34.92;19.15;;;;;;;2.88;83.23;98745.16;5026061;28;20069;-85
2024/02/29 08:51:13;;;;;;;41.10;18.52;;;;;;;2.36;82.17;98642.34;5026413;28;20029;-85
2024/02/29 08:53:39;;;;;;;37.35;20.48;;;;;;;2.98;82.29;98756.13;5059120;28;20037;-85
2024/02/29 08:56:04;;;;;;;36.47;18.85;;;;;;;2.93;82.73;98741.91;5023851;28;20064;-85
2024/02/29 08:58:30;;;;;;;39.03;20.35;;;;;;;2.76;84.23;98723.06;5042631;28;20503;-85
2024/02/29 09:00:56;;;;;;;35.50;19.27;;;;;;;2.91;82.82;98722.84;5041346;28;20029;-85
2024/02/29 09:03:21;;;;;;;41.92;21.67;;;;;;;2.55;83.46;98659.19;5041824;28;20044;-85
2024/02/29 09:05:47;;;;;;;38.65;19.75;;;;;;;2.10;84.34;98605.47;5046725;28;20018;-84
2024/02/29 09:08:12;;;;;;;42.17;21.70;;;;;;;2.51;84.34;98658.78;5025203;28;20036;-85
2024/02/29 09:10:38;;;;;;;45.10;22.08;;;;;;;2.57;85.27;98670.34;5041231;28;20040;-85
2024/02/29 09:13:07;;;;;;;42.38;20.00;;;;;;;3.08;83.56;98739.09;5000645;28;20115;-85
2024/02/29 09:15:33;;;;;;;44.47;25.52;;;;;;;2.79;84.10;98679.69;5059141;28;20080;-85
2024/02/29 09:17:58;;;;;;;35.80;18.55;;;;;;;3.20;84.13;98734.81;5021086;28;20049;-85
2024/02/29 09:20:24;;;;;;;42.15;23.15;;;;;;;3.09;84.36;98706.44;5020827;28;20044;-85
2024/02/29 09:22:49;;;;;;;35.05;20.35;;;;;;;3.32;84.42;98738.47;5034892;28;20014;-85
2024/02/29 09:25:17;;;;;;;44.17;23.98;;;;;;;3.35;84.32;98738.84;5044535;28;20041;-85
2024/02/29 09:27:43;;;;;;;39.45;19.10;;;;;;;3.46;82.87;98735.59;5005076;28;20025;-85
2024/02/29 09:30:09;;;;;;;36.63;20.33;;;;;;;3.20;84.46;98705.81;5040309;28;20036;-85
2024/02/29 09:32:37;;;;;;;37.78;22.65;;;;;;;3.00;85.32;98667.09;5020935;28;20026;-84
2024/02/29 09:35:03;;;;;;;38.65;20.80;;;;;;;3.03;83.52;98647.44;5037620;28;20104;-85
2024/02/29 09:37:29;;;;;;;35.05;19.88;;;;;;;3.21;82.89;98662.63;5022835;28;20041;-85
2024/02/29 09:39:54;;;;;;;45.67;23.73;;;;;;;3.60;84.79;98720.56;5025107;28;20065;-85
2024/02/29 09:42:20;;;;;;;40.72;21.42;;;;;;;3.09;83.55;98632.59;5027912;28;20036;-85
2024/02/29 09:44:46;;;;;;;43.25;24.02;;;;;;;3.40;84.83;98686.31;5006111;28;20452;-85
2024/02/29 09:47:13;;;;;;;45.25;23.48;;;;;;;3.31;84.51;98662.97;5040452;28;20029;-85
2024/02/29 09:49:38;;;;;;;37.28;19.40;;;;;;;3.59;82.72;98679.34;5040895;28;20033;-85
2024/02/29 09:52:06;;;;;;;34.42;19.42;;;;;;;3.89;82.76;98716.63;5021895;28;20089;-85
2024/02/29 09:54:33;;;;;;;43.58;22.10;;;;;;;3.85;83.54;98710.09;5054355;28;20029;-85
2024/02/29 09:56:59;;;;;;;36.15;18.88;;;;;;;3.34;82.65;98601.91;5040999;28;20025;-85
2024/02/29 09:59:25;;;;;;;38.78;20.65;;;;;;;4.00;82.42;98703.56;5024582;28;20195;-85
2024/02/29 10:01:55;;;;;;;37.05;22.35;;;;;;;4.05;82.69;98692.38;5024508;28;20037;-84
2024/02/29 10:04:20;;;;;;;34.45;21.10;;;;;;;4.05;82.39;98690.53;5021932;28;20120;-84
2024/02/29 10:06:45;;;;;;;35.78;19.83;;;;;;;3.89;83.20;98684.94;5039288;28;20061;-84
2024/02/29 10:09:11;;;;;;;43.85;22.63;;;;;;;3.84;83.33;98651.25;5041152;28;20109;-85
2024/02/29 10:11:40;;;;;;;38.58;19.25;;;;;;;4.13;82.26;98679.72;5025998;28;20088;-85
2024/02/29 10:14:29;;;;;;;35.60;20.20;;;;;;;4.30;81.88;98680.84;5038910;28;20033;-85
2024/02/29 10:16:56;;;;;;;41.50;21.63;;;;;;;4.22;82.23;98667.88;5037240;28;20568;-85
2024/02/29 10:19:22;;;;;;;37.38;20.45;;;;;;;4.31;82.69;98679.00;5020792;28;20025;-85
2024/02/29 10:21:48;;;;;;;40.17;22.52;;;;;;;3.98;82.44;98618.47;5040978;28;20029;-85
2024/02/29 10:24:14;;;;;;;34.75;19.75;;;;;;;4.45;81.51;98681.38;5023266;28;20087;-84
2024/02/29 10:26:39;;;;;;;37.08;20.70;;;;;;;4.52;81.00;98676.84;5038562;28;20029;-85
2024/02/29 10:29:09;;;;;;;38.63;20.77;;;;;;;4.15;82.05;98595.81;5043816;28;20036;-86
2024/02/29 10:31:35;;;;;;;34.92;20.25;;;;;;;4.15;81.94;98605.59;5038401;28;20439;-85
2024/02/29 10:34:00;;;;;;;31.73;16.92;;;;;;;4.25;81.14;98600.63;5022585;28;20105;-85
2024/02/29 10:36:26;;;;;;;36.53;21.35;;;;;;;4.10;81.65;98584.28;5041171;28;20045;-85
2024/02/29 10:38:51;;;;;;;41.38;22.50;;;;;;;4.69;81.90;98671.03;5037364;28;20061;-85
2024/02/29 10:41:18;;;;;;;37.30;19.98;;;;;;;4.14;81.48;98578.34;5039684;28;20025;-85
2024/02/29 10:43:47;;;;;;;37.10;20.05;;;;;;;4.73;81.78;98659.00;5039314;28;20063;-85
2024/02/29 10:46:15;;;;;;;38.45;21.65;;;;;;;4.73;81.90;98662.47;5039345;28;20022;-85
2024/02/29 10:48:48;;;;;;;42.55;21.85;;;;;;;4.33;82.22;98585.31;5039640;28;20053;-84
2024/02/29 10:51:32;;;;;;;36.33;20.20;;;;;;;4.90;81.24;98660.91;5055348;28;20032;-85
2024/02/29 10:54:20;;;;;;;38.35;22.15;;;;;;;4.89;82.43;98648.69;5053904;28;20036;-85
2024/02/29 10:56:48;;;;;;;39.90;21.10;;;;;;;5.00;81.73;98647.19;5003439;28;20037;-85
2024/02/29 10:59:16;;;;;;;33.88;20.38;;;;;;;4.95;81.28;98634.63;5036327;28;20029;-85
2024/02/29 11:01:42;;;;;;;38.35;21.17;;;;;;;4.41;81.56;98526.13;5021325;28;20072;-84
2024/02/29 11:04:07;;;;;;;35.75;20.65;;;;;;;4.42;81.85;98554.97;5033860;28;20018;-88
2024/02/29 11:06:45;;;;;;;44.55;22.20;;;;;;;4.40;82.07;98527.97;5035909;28;20637;-88
2024/02/29 11:09:12;;;;;;;47.45;22.73;;;;;;;5.06;81.47;98625.16;5025216;28;20026;-88
2024/02/29 11:11:38;;;;;;;54.88;25.88;;;;;;;5.09;81.75;98603.53;5031137;28;20040;-88
2024/02/29 11:14:09;;;;;;;52.40;22.15;;;;;;;5.29;81.50;98612.09;5012649;28;20548;-85
2024/02/29 11:16:42;;;;;;;48.50;21.38;;;;;;;5.21;81.51;98604.44;5033164;28;20057;-83
2024/02/29 11:19:11;;;;;;;42.80;22.73;;;;;;;5.28;81.36;98570.78;5017791;28;20022;-85